Time;durP1;ratioP1;P1;durP2;ratioP2;P2;SDS_P1;SDS_P2;PMS_P1;PMS_P2;Temp;Humidity;BMP_temperature;BMP_pressure;BME280_temperature;BME280_humidity;BME280_pressure;Samples;Min_cycle;Max_cycle;Signal;HPM_P1;HPM_P2
2023/09/29 00:00:08;;;;;;;12.17;3.00;;;;;;;;;;5009620;28;20409;-57
2023/09/29 00:02:33;;;;;;;11.80;3.00;;;;;;;;;;5005359;28;20388;-56
2023/09/29 00:04:59;;;;;;;13.47;3.40;;;;;;;;;;5006751;28;20407;-57
2023/09/29 00:07:24;;;;;;;11.83;3.37;;;;;;;;;;5005477;28;20903;-58
2023/09/29 00:09:49;;;;;;;11.63;3.33;;;;;;;;;;5006531;28;20420;-57
2023/09/29 00:12:15;;;;;;;13.93;3.57;;;;;;;;;;5006381;28;21266;-57
2023/09/29 00:14:40;;;;;;;11.97;3.20;;;;;;;;;;5003070;28;20407;-57
2023/09/29 00:17:05;;;;;;;8.93;3.00;;;;;;;;;;4997932;28;20756;-57
2023/09/29 00:19:30;;;;;;;12.27;3.13;;;;;;;;;;4999119;28;20403;-57
2023/09/29 00:21:56;;;;;;;13.13;3.73;;;;;;;;;;4999728;28;20409;-57
2023/09/29 00:24:21;;;;;;;13.10;3.37;;;;;;;;;;5005356;28;20896;-57
2023/09/29 00:26:46;;;;;;;10.30;3.38;;;;;;;;;;5006472;28;20430;-57
2023/09/29 00:29:12;;;;;;;11.53;3.63;;;;;;;;;;5006336;28;20754;-57
2023/09/29 00:31:37;;;;;;;10.50;3.40;;;;;;;;;;5005319;28;20416;-57
2023/09/29 00:34:02;;;;;;;11.25;3.30;;;;;;;;;;5005250;28;20449;-58
2023/09/29 00:36:27;;;;;;;13.00;3.40;;;;;;;;;;5007657;28;20388;-57
2023/09/29 00:38:53;;;;;;;11.90;3.50;;;;;;;;;;4998367;28;21107;-57
2023/09/29 00:41:18;;;;;;;10.47;3.30;;;;;;;;;;4996823;28;20761;-57
2023/09/29 00:43:43;;;;;;;12.83;3.30;;;;;;;;;;4997981;28;20935;-57
2023/09/29 00:46:09;;;;;;;11.47;3.57;;;;;;;;;;5003349;28;20452;-57
2023/09/29 00:48:35;;;;;;;12.13;3.37;;;;;;;;;;5003582;28;20418;-56
2023/09/29 00:51:01;;;;;;;10.20;3.27;;;;;;;;;;5004579;28;20823;-57
2023/09/29 00:53:28;;;;;;;11.07;3.23;;;;;;;;;;5007013;28;20891;-56
2023/09/29 00:55:53;;;;;;;10.70;3.25;;;;;;;;;;5003885;28;20415;-56
2023/09/29 00:58:19;;;;;;;10.27;3.30;;;;;;;;;;5004728;28;20434;-56
2023/09/29 01:00:45;;;;;;;10.75;3.28;;;;;;;;;;5002357;28;21003;-56
2023/09/29 01:03:13;;;;;;;10.38;3.28;;;;;;;;;;4995813;28;20485;-56
2023/09/29 01:05:39;;;;;;;11.35;3.80;;;;;;;;;;4996304;28;20453;-57
2023/09/29 01:08:09;;;;;;;10.98;3.60;;;;;;;;;;5002384;28;20761;-57
2023/09/29 01:10:35;;;;;;;11.32;3.30;;;;;;;;;;5006976;28;20415;-56
2023/09/29 01:13:01;;;;;;;14.05;3.70;;;;;;;;;;5004459;28;20448;-57
2023/09/29 01:15:26;;;;;;;11.57;3.60;;;;;;;;;;5002908;28;20504;-56
2023/09/29 01:17:52;;;;;;;13.43;4.70;;;;;;;;;;5006340;28;20892;-56
2023/09/29 01:20:25;;;;;;;12.73;4.00;;;;;;;;;;5012487;28;20408;-57
2023/09/29 01:22:50;;;;;;;13.95;4.32;;;;;;;;;;5001788;28;20465;-57
2023/09/29 01:25:15;;;;;;;13.83;5.20;;;;;;;;;;4996800;28;20403;-56
2023/09/29 01:27:41;;;;;;;14.23;5.70;;;;;;;;;;4996731;28;20410;-56
2023/09/29 01:30:06;;;;;;;12.20;5.03;;;;;;;;;;4997975;28;20422;-57
2023/09/29 01:32:32;;;;;;;14.23;5.87;;;;;;;;;;5004185;28;20738;-57
2023/09/29 01:34:57;;;;;;;15.60;6.07;;;;;;;;;;5006917;28;20849;-57
2023/09/29 01:37:22;;;;;;;15.37;7.27;;;;;;;;;;5002960;28;20563;-56
2023/09/29 01:39:48;;;;;;;14.93;6.27;;;;;;;;;;5002915;28;20916;-57
2023/09/29 01:42:13;;;;;;;13.60;6.33;;;;;;;;;;5005456;28;20409;-56
2023/09/29 01:44:38;;;;;;;15.17;6.53;;;;;;;;;;5004217;28;20411;-56
2023/09/29 01:47:03;;;;;;;15.03;6.77;;;;;;;;;;4996336;28;20851;-56
2023/09/29 01:49:30;;;;;;;17.50;6.72;;;;;;;;;;4996889;28;20405;-57
2023/09/29 01:51:55;;;;;;;15.18;6.82;;;;;;;;;;4999837;28;20440;-57
2023/09/29 01:54:20;;;;;;;14.50;6.63;;;;;;;;;;5002171;28;20957;-56
2023/09/29 01:56:46;;;;;;;14.17;6.87;;;;;;;;;;5004325;28;20400;-56
2023/09/29 01:59:12;;;;;;;16.00;6.07;;;;;;;;;;5004030;28;20412;-57
2023/09/29 02:01:38;;;;;;;14.98;6.55;;;;;;;;;;5003371;28;20461;-57
2023/09/29 02:04:04;;;;;;;16.13;6.47;;;;;;;;;;5003068;28;20424;-57
2023/09/29 02:06:29;;;;;;;13.75;6.32;;;;;;;;;;5004239;28;20498;-56
2023/09/29 02:08:57;;;;;;;15.35;6.03;;;;;;;;;;5004424;28;20482;-56
2023/09/29 02:11:22;;;;;;;14.52;6.03;;;;;;;;;;4999871;28;20407;-57
2023/09/29 02:13:48;;;;;;;19.80;6.93;;;;;;;;;;5001575;28;20400;-56
2023/09/29 02:16:15;;;;;;;15.03;6.77;;;;;;;;;;5006534;28;21171;-56
2023/09/29 02:18:40;;;;;;;15.15;6.55;;;;;;;;;;5007296;28;20418;-56
2023/09/29 02:21:08;;;;;;;16.13;6.90;;;;;;;;;;5007263;28;20970;-57
2023/09/29 02:23:33;;;;;;;14.48;6.80;;;;;;;;;;5007689;28;20777;-57
2023/09/29 02:26:00;;;;;;;13.48;5.80;;;;;;;;;;5007016;28;21150;-56
2023/09/29 02:28:30;;;;;;;13.05;6.30;;;;;;;;;;5005532;28;20410;-57
2023/09/29 02:30:56;;;;;;;16.30;6.35;;;;;;;;;;5004937;28;20486;-56
2023/09/29 02:33:22;;;;;;;13.10;5.85;;;;;;;;;;5003560;28;20405;-56
2023/09/29 02:35:47;;;;;;;12.60;6.50;;;;;;;;;;4998373;28;20419;-56
2023/09/29 02:38:13;;;;;;;14.48;6.97;;;;;;;;;;5001836;28;20896;-56
2023/09/29 02:40:39;;;;;;;16.35;6.97;;;;;;;;;;5007439;28;20832;-56
2023/09/29 02:43:05;;;;;;;16.47;6.90;;;;;;;;;;5005028;28;20491;-56
2023/09/29 02:45:30;;;;;;;13.48;6.75;;;;;;;;;;5005536;28;20404;-57
2023/09/29 02:47:55;;;;;;;14.40;6.43;;;;;;;;;;5006652;28;20404;-56
2023/09/29 02:50:21;;;;;;;12.17;6.40;;;;;;;;;;5005701;28;20487;-56
2023/09/29 02:52:46;;;;;;;12.97;6.13;;;;;;;;;;5005659;28;20457;-57
2023/09/29 02:55:12;;;;;;;14.97;6.83;;;;;;;;;;4998208;28;20636;-57
2023/09/29 02:57:38;;;;;;;14.10;6.77;;;;;;;;;;5002164;28;21117;-56
2023/09/29 03:00:23;;;;;;;14.75;6.45;;;;;;;;;;4998044;28;20754;-57
2023/09/29 03:02:48;;;;;;;12.23;5.90;;;;;;;;;;5005861;28;20419;-56
2023/09/29 03:05:15;;;;;;;14.82;6.35;;;;;;;;;;5006979;28;20777;-56
2023/09/29 03:07:41;;;;;;;12.43;5.97;;;;;;;;;;5010296;28;20637;-56
2023/09/29 03:10:06;;;;;;;13.98;6.75;;;;;;;;;;5003419;28;20409;-56
2023/09/29 03:12:31;;;;;;;11.32;5.55;;;;;;;;;;5018476;28;20388;-56
2023/09/29 03:14:57;;;;;;;13.97;6.30;;;;;;;;;;5007273;28;20508;-56
2023/09/29 03:17:22;;;;;;;11.27;5.77;;;;;;;;;;4998085;28;20831;-56
2023/09/29 03:19:47;;;;;;;13.07;6.17;;;;;;;;;;4998600;28;20412;-56
2023/09/29 03:22:13;;;;;;;12.10;6.00;;;;;;;;;;4933096;28;1819409;-57
2023/09/29 03:24:38;;;;;;;11.10;5.77;;;;;;;;;;5008140;28;20411;-56
2023/09/29 03:27:04;;;;;;;12.55;5.63;;;;;;;;;;5002970;28;20401;-56
2023/09/29 03:29:29;;;;;;;11.13;5.70;;;;;;;;;;5006114;28;20909;-57
2023/09/29 03:31:54;;;;;;;10.85;5.80;;;;;;;;;;5005349;28;20423;-57
2023/09/29 03:34:20;;;;;;;12.37;6.30;;;;;;;;;;5008649;28;20500;-56
2023/09/29 03:36:45;;;;;;;11.23;5.90;;;;;;;;;;5006287;28;20424;-56
2023/09/29 03:39:11;;;;;;;10.20;5.63;;;;;;;;;;5001297;28;20403;-56
2023/09/29 03:41:36;;;;;;;10.03;5.17;;;;;;;;;;5000989;28;20820;-56
2023/09/29 03:44:01;;;;;;;11.00;5.40;;;;;;;;;;4998066;28;20418;-56
2023/09/29 03:46:28;;;;;;;10.07;5.10;;;;;;;;;;5001561;28;20438;-56
2023/09/29 03:48:54;;;;;;;11.27;5.80;;;;;;;;;;5006332;28;20405;-56
2023/09/29 03:51:21;;;;;;;12.00;5.40;;;;;;;;;;5007220;28;20427;-56
2023/09/29 03:53:48;;;;;;;8.02;4.70;;;;;;;;;;5006323;28;20415;-56
2023/09/29 03:56:13;;;;;;;10.82;5.20;;;;;;;;;;5005962;28;20480;-56
2023/09/29 03:58:38;;;;;;;11.50;5.33;;;;;;;;;;5007446;28;21076;-57
2023/09/29 04:01:04;;;;;;;10.77;4.97;;;;;;;;;;5004317;28;20404;-56
2023/09/29 04:03:29;;;;;;;8.90;4.53;;;;;;;;;;4998491;28;20412;-56
2023/09/29 04:05:54;;;;;;;10.20;4.83;;;;;;;;;;4999271;28;20428;-56
2023/09/29 04:08:20;;;;;;;10.43;4.73;;;;;;;;;;5000459;28;20389;-57
2023/09/29 04:10:46;;;;;;;9.73;4.93;;;;;;;;;;5006425;28;20815;-57
2023/09/29 04:13:11;;;;;;;8.68;4.70;;;;;;;;;;5005855;28;20467;-57
2023/09/29 04:15:36;;;;;;;9.90;4.80;;;;;;;;;;5007707;28;20854;-57
2023/09/29 04:18:02;;;;;;;9.13;4.60;;;;;;;;;;5005180;28;20423;-57
2023/09/29 04:20:27;;;;;;;9.53;4.80;;;;;;;;;;5005520;28;20475;-57
2023/09/29 04:22:52;;;;;;;10.27;4.90;;;;;;;;;;5006075;28;20412;-57
2023/09/29 04:25:18;;;;;;;8.90;4.72;;;;;;;;;;4998822;28;20632;-56
2023/09/29 04:27:44;;;;;;;9.48;4.60;;;;;;;;;;4996671;28;20411;-56
2023/09/29 04:30:12;;;;;;;10.73;5.00;;;;;;;;;;4997581;28;20428;-57
2023/09/29 04:32:37;;;;;;;8.38;4.38;;;;;;;;;;5008634;28;20422;-56
2023/09/29 04:35:03;;;;;;;9.50;4.33;;;;;;;;;;5004209;28;20413;-57
2023/09/29 04:37:28;;;;;;;8.07;3.88;;;;;;;;;;5004654;28;20476;-56
2023/09/29 04:39:55;;;;;;;9.50;4.00;;;;;;;;;;5005827;28;20451;-56
2023/09/29 04:42:21;;;;;;;10.25;5.30;;;;;;;;;;5011388;28;20393;-56
2023/09/29 04:44:46;;;;;;;8.07;3.90;;;;;;;;;;5005263;28;20418;-57
2023/09/29 04:47:11;;;;;;;8.87;3.63;;;;;;;;;;5000612;28;20401;-57
2023/09/29 04:49:37;;;;;;;7.67;3.93;;;;;;;;;;4997686;28;20405;-56
2023/09/29 04:52:03;;;;;;;8.50;3.90;;;;;;;;;;4996369;28;20512;-57
2023/09/29 04:54:28;;;;;;;9.75;4.00;;;;;;;;;;5002813;28;20907;-56
2023/09/29 04:56:53;;;;;;;7.60;3.63;;;;;;;;;;5006500;28;20457;-57
2023/09/29 04:59:19;;;;;;;6.17;3.20;;;;;;;;;;5004953;28;20431;-56
2023/09/29 05:01:44;;;;;;;8.17;3.80;;;;;;;;;;5004922;28;20408;-56
2023/09/29 05:04:09;;;;;;;8.77;3.83;;;;;;;;;;5005983;28;20424;-57
2023/09/29 05:06:35;;;;;;;7.87;3.40;;;;;;;;;;5005753;28;20905;-57
2023/09/29 05:09:01;;;;;;;8.27;3.63;;;;;;;;;;5001864;28;20399;-57
2023/09/29 05:11:27;;;;;;;8.05;3.60;;;;;;;;;;4998021;28;20833;-57
2023/09/29 05:13:52;;;;;;;8.65;3.63;;;;;;;;;;5000918;28;20404;-57
2023/09/29 05:16:18;;;;;;;6.63;3.20;;;;;;;;;;4997893;28;20763;-56
2023/09/29 05:18:43;;;;;;;5.80;3.10;;;;;;;;;;5003856;28;20417;-56
2023/09/29 05:21:09;;;;;;;8.55;3.60;;;;;;;;;;5005540;28;20410;-56
2023/09/29 05:23:35;;;;;;;7.03;3.20;;;;;;;;;;5003438;28;20766;-58
2023/09/29 05:26:03;;;;;;;6.70;3.33;;;;;;;;;;5002387;28;20427;-59
2023/09/29 05:28:29;;;;;;;7.68;3.63;;;;;;;;;;5006341;28;20397;-58
2023/09/29 05:30:54;;;;;;;7.80;3.40;;;;;;;;;;5004176;28;20767;-58
2023/09/29 05:33:19;;;;;;;8.20;3.67;;;;;;;;;;4996516;28;20379;-58
2023/09/29 05:35:46;;;;;;;5.70;2.93;;;;;;;;;;4995183;28;20405;-58
2023/09/29 05:38:11;;;;;;;10.30;3.43;;;;;;;;;;4999363;28;20977;-58
2023/09/29 05:40:38;;;;;;;7.60;3.40;;;;;;;;;;5004220;28;21147;-58
2023/09/29 05:43:04;;;;;;;7.00;3.05;;;;;;;;;;5003966;28;20876;-58
2023/09/29 05:45:29;;;;;;;7.43;3.25;;;;;;;;;;5010322;28;20414;-58
2023/09/29 05:47:56;;;;;;;10.30;3.87;;;;;;;;;;5022082;28;20411;-58
2023/09/29 05:50:21;;;;;;;19.27;3.90;;;;;;;;;;5022687;28;20427;-59
2023/09/29 05:52:47;;;;;;;12.47;3.50;;;;;;;;;;5017969;28;20859;-58
2023/09/29 05:55:13;;;;;;;8.43;2.97;;;;;;;;;;5020045;28;20409;-58
2023/09/29 05:57:38;;;;;;;8.10;3.50;;;;;;;;;;5015066;28;20507;-58
2023/09/29 06:00:04;;;;;;;7.90;3.17;;;;;;;;;;5020941;28;20410;-59
2023/09/29 06:02:30;;;;;;;6.47;3.20;;;;;;;;;;5018308;28;20472;-59
2023/09/29 06:04:55;;;;;;;9.27;2.90;;;;;;;;;;5014474;28;20403;-59
2023/09/29 06:07:20;;;;;;;6.77;3.07;;;;;;;;;;5022064;28;20423;-59
2023/09/29 06:09:45;;;;;;;7.30;2.90;;;;;;;;;;5017446;28;20942;-59
2023/09/29 06:12:11;;;;;;;7.40;2.88;;;;;;;;;;5014550;28;20453;-59
2023/09/29 06:14:37;;;;;;;5.77;2.50;;;;;;;;;;5016617;28;20760;-59
2023/09/29 06:17:02;;;;;;;6.75;2.65;;;;;;;;;;5020245;28;20493;-59
2023/09/29 06:19:27;;;;;;;6.23;2.47;;;;;;;;;;5019997;28;20474;-59
2023/09/29 06:21:53;;;;;;;6.63;2.37;;;;;;;;;;5013744;28;20963;-60
2023/09/29 06:24:18;;;;;;;4.53;2.20;;;;;;;;;;5021834;28;20399;-59
2023/09/29 06:26:43;;;;;;;5.30;2.40;;;;;;;;;;5017943;28;20459;-57
2023/09/29 06:29:08;;;;;;;5.93;2.30;;;;;;;;;;5022107;28;20411;-57
2023/09/29 06:31:34;;;;;;;6.67;2.33;;;;;;;;;;5014748;28;20746;-57
2023/09/29 06:33:59;;;;;;;4.73;2.17;;;;;;;;;;5016648;28;20410;-57
2023/09/29 06:36:24;;;;;;;8.87;2.53;;;;;;;;;;5014091;28;20882;-58
2023/09/29 06:38:49;;;;;;;6.07;2.07;;;;;;;;;;5022838;28;20414;-58
2023/09/29 06:41:15;;;;;;;4.40;2.10;;;;;;;;;;5014669;28;20409;-57
2023/09/29 06:43:41;;;;;;;5.65;2.47;;;;;;;;;;5016376;28;20415;-57
2023/09/29 06:46:07;;;;;;;5.90;2.40;;;;;;;;;;5018494;28;20407;-57
2023/09/29 06:48:33;;;;;;;4.83;2.17;;;;;;;;;;5021758;28;20444;-58
2023/09/29 06:50:59;;;;;;;5.88;2.25;;;;;;;;;;5017533;28;20491;-57
2023/09/29 06:53:24;;;;;;;7.95;2.47;;;;;;;;;;5020504;28;20975;-57
2023/09/29 06:55:51;;;;;;;7.45;2.25;;;;;;;;;;5025404;28;20403;-57
2023/09/29 06:58:16;;;;;;;6.93;2.17;;;;;;;;;;5022714;28;20420;-57
2023/09/29 07:00:44;;;;;;;7.80;2.67;;;;;;;;;;5022558;28;20482;-57
2023/09/29 07:03:12;;;;;;;7.05;2.00;;;;;;;;;;5017104;28;20407;-57
2023/09/29 07:05:37;;;;;;;8.50;2.30;;;;;;;;;;5024478;28;20407;-57
2023/09/29 07:08:03;;;;;;;4.80;1.97;;;;;;;;;;5020851;28;20901;-58
2023/09/29 07:10:28;;;;;;;6.43;2.10;;;;;;;;;;5025223;28;20457;-57
2023/09/29 07:12:53;;;;;;;6.10;2.08;;;;;;;;;;5017762;28;20424;-57
2023/09/29 07:15:19;;;;;;;6.03;1.90;;;;;;;;;;5020116;28;20422;-57
2023/09/29 07:17:44;;;;;;;4.67;1.93;;;;;;;;;;5023732;28;20512;-57
2023/09/29 07:20:09;;;;;;;5.97;1.90;;;;;;;;;;5024847;28;20418;-57
2023/09/29 07:22:35;;;;;;;5.93;2.10;;;;;;;;;;5018359;28;20413;-57
2023/09/29 07:25:00;;;;;;;5.57;2.10;;;;;;;;;;5018266;28;20445;-57
2023/09/29 07:27:25;;;;;;;7.13;2.10;;;;;;;;;;5024738;28;20398;-57
2023/09/29 07:29:51;;;;;;;5.13;2.00;;;;;;;;;;5025181;28;20850;-57
2023/09/29 07:32:16;;;;;;;4.80;1.90;;;;;;;;;;5019739;28;20421;-57
2023/09/29 07:34:41;;;;;;;4.13;2.10;;;;;;;;;;5017148;28;20414;-57
2023/09/29 07:37:06;;;;;;;4.90;2.13;;;;;;;;;;5024976;28;20442;-57
2023/09/29 07:39:32;;;;;;;4.80;2.10;;;;;;;;;;5020089;28;20913;-57
2023/09/29 07:41:57;;;;;;;4.60;1.80;;;;;;;;;;5023909;28;20994;-57
2023/09/29 07:44:22;;;;;;;6.23;2.40;;;;;;;;;;5024736;28;20486;-57
2023/09/29 07:46:52;;;;;;;3.70;2.10;;;;;;;;;;5021673;28;20473;-58
2023/09/29 07:49:19;;;;;;;5.05;1.90;;;;;;;;;;5020623;28;20407;-57
2023/09/29 07:51:44;;;;;;;4.70;2.05;;;;;;;;;;5024466;28;20423;-58
2023/09/29 07:54:09;;;;;;;5.97;2.03;;;;;;;;;;5016514;28;20405;-57
2023/09/29 07:56:34;;;;;;;4.83;2.23;;;;;;;;;;5020502;28;20459;-58
2023/09/29 07:59:00;;;;;;;4.93;2.20;;;;;;;;;;5030441;28;20890;-57
2023/09/29 08:01:25;;;;;;;5.27;2.10;;;;;;;;;;5015787;28;20397;-57
2023/09/29 08:03:50;;;;;;;5.50;2.10;;;;;;;;;;5020862;28;20453;-56
2023/09/29 08:06:17;;;;;;;3.70;2.10;;;;;;;;;;5020819;28;20857;-57
2023/09/29 08:08:43;;;;;;;5.78;2.40;;;;;;;;;;5024721;28;20400;-57
2023/09/29 08:11:08;;;;;;;6.75;2.17;;;;;;;;;;5020893;28;20778;-57
2023/09/29 08:13:34;;;;;;;6.67;2.00;;;;;;;;;;5019819;28;21510;-57
2023/09/29 08:15:59;;;;;;;7.33;2.47;;;;;;;;;;5016662;28;20894;-57
2023/09/29 08:18:25;;;;;;;6.60;2.30;;;;;;;;;;5016142;28;20476;-57
2023/09/29 08:20:52;;;;;;;6.63;2.60;;;;;;;;;;5018257;28;20464;-57
2023/09/29 08:23:17;;;;;;;5.63;2.08;;;;;;;;;;5016702;28;20410;-57
2023/09/29 08:25:43;;;;;;;5.10;2.10;;;;;;;;;;5024265;28;20461;-57
2023/09/29 08:28:08;;;;;;;4.85;2.30;;;;;;;;;;5016652;28;20907;-57
2023/09/29 08:30:34;;;;;;;5.27;2.30;;;;;;;;;;5017712;28;20484;-57
2023/09/29 08:32:59;;;;;;;6.03;2.43;;;;;;;;;;5024397;28;20434;-57
2023/09/29 08:35:27;;;;;;;4.67;2.30;;;;;;;;;;5022822;28;20409;-57
2023/09/29 08:37:52;;;;;;;7.53;2.05;;;;;;;;;;5019014;28;20397;-57
2023/09/29 08:40:17;;;;;;;7.13;2.00;;;;;;;;;;5015508;28;20464;-57
2023/09/29 08:42:49;;;;;;;6.37;2.20;;;;;;;;;;5023949;28;20862;-57
2023/09/29 08:45:16;;;;;;;6.32;2.20;;;;;;;;;;5016587;28;20412;-57
2023/09/29 08:47:41;;;;;;;6.43;2.30;;;;;;;;;;5019844;28;20409;-57
2023/09/29 08:50:08;;;;;;;4.33;2.10;;;;;;;;;;5014105;28;21138;-57
2023/09/29 08:52:33;;;;;;;6.78;2.40;;;;;;;;;;5022573;28;20881;-57
2023/09/29 08:54:59;;;;;;;6.20;2.27;;;;;;;;;;5016682;28;20486;-57
2023/09/29 08:57:24;;;;;;;4.80;1.87;;;;;;;;;;5015718;28;20389;-57
2023/09/29 08:59:51;;;;;;;6.13;2.20;;;;;;;;;;5023793;28;20902;-57
2023/09/29 09:02:16;;;;;;;8.45;2.20;;;;;;;;;;5017275;28;20498;-57
2023/09/29 09:04:41;;;;;;;5.07;1.80;;;;;;;;;;5022366;28;20504;-57
2023/09/29 09:07:06;;;;;;;4.05;1.60;;;;;;;;;;5015010;28;20753;-58
2023/09/29 09:09:35;;;;;;;4.60;1.80;;;;;;;;;;5020819;28;20395;-57
2023/09/29 09:12:00;;;;;;;5.88;1.95;;;;;;;;;;5018849;28;20411;-57
2023/09/29 09:14:26;;;;;;;7.33;1.90;;;;;;;;;;5012006;28;20397;-57
2023/09/29 09:16:51;;;;;;;7.00;2.20;;;;;;;;;;5012055;28;20768;-57
2023/09/29 09:19:16;;;;;;;4.87;2.00;;;;;;;;;;5021417;28;20916;-57
2023/09/29 09:21:42;;;;;;;6.03;2.27;;;;;;;;;;5021041;28;20413;-57
2023/09/29 09:24:19;;;;;;;5.53;1.77;;;;;;;;;;5014436;28;20415;-58
2023/09/29 09:26:46;;;;;;;5.90;1.90;;;;;;;;;;5015321;28;20400;-57
2023/09/29 09:29:15;;;;;;;6.00;1.95;;;;;;;;;;5017208;28;20904;-57
2023/09/29 09:31:42;;;;;;;7.13;2.13;;;;;;;;;;5014424;28;20911;-57
2023/09/29 09:34:08;;;;;;;4.72;2.00;;;;;;;;;;5014596;28;20407;-57
2023/09/29 09:36:43;;;;;;;5.17;2.10;;;;;;;;;;5020438;28;20425;-57
2023/09/29 09:39:09;;;;;;;5.28;1.70;;;;;;;;;;5018786;28;20935;-57
2023/09/29 09:41:35;;;;;;;5.53;2.08;;;;;;;;;;5015112;28;20432;-57
2023/09/29 09:44:00;;;;;;;7.27;2.13;;;;;;;;;;5023247;28;20426;-57
2023/09/29 09:46:25;;;;;;;6.97;2.40;;;;;;;;;;5017394;28;20809;-57
2023/09/29 09:48:55;;;;;;;5.70;2.20;;;;;;;;;;5020433;28;21893;-57
2023/09/29 09:51:33;;;;;;;7.22;2.00;;;;;;;;;;5022041;28;20391;-58
2023/09/29 09:54:02;;;;;;;8.10;2.30;;;;;;;;;;5021068;28;20897;-57
2023/09/29 09:56:28;;;;;;;4.82;2.00;;;;;;;;;;5017469;28;20922;-57
2023/09/29 09:58:53;;;;;;;5.67;2.30;;;;;;;;;;5025732;28;20501;-57
2023/09/29 10:01:18;;;;;;;5.90;2.17;;;;;;;;;;5021390;28;20403;-57
2023/09/29 10:03:43;;;;;;;5.83;2.00;;;;;;;;;;5017127;28;20403;-57
2023/09/29 10:06:09;;;;;;;5.03;2.03;;;;;;;;;;5012647;28;20408;-58
2023/09/29 10:08:34;;;;;;;6.47;2.10;;;;;;;;;;5021197;28;20422;-58
2023/09/29 10:11:12;;;;;;;5.70;2.10;;;;;;;;;;5019358;28;20443;-58
2023/09/29 10:13:37;;;;;;;7.47;2.58;;;;;;;;;;5018632;28;21029;-58
2023/09/29 10:16:05;;;;;;;5.25;1.90;;;;;;;;;;5022285;28;20404;-58
2023/09/29 10:18:32;;;;;;;6.60;2.28;;;;;;;;;;5014451;28;20455;-58
2023/09/29 10:21:03;;;;;;;5.32;1.90;;;;;;;;;;5017201;28;20486;-58
2023/09/29 10:23:30;;;;;;;6.43;1.95;;;;;;;;;;5021463;28;20420;-58
2023/09/29 10:25:58;;;;;;;7.03;2.40;;;;;;;;;;5013665;28;20405;-58
2023/09/29 10:28:31;;;;;;;5.00;1.92;;;;;;;;;;5016350;28;20389;-58
2023/09/29 10:31:04;;;;;;;7.63;2.28;;;;;;;;;;5019939;28;20411;-58
2023/09/29 10:33:30;;;;;;;5.82;2.28;;;;;;;;;;5017304;28;20529;-58
2023/09/29 10:35:55;;;;;;;5.20;2.17;;;;;;;;;;5026589;28;20474;-57
2023/09/29 10:38:22;;;;;;;8.32;2.22;;;;;;;;;;5020285;28;20393;-57
2023/09/29 10:40:48;;;;;;;7.75;3.17;;;;;;;;;;5017141;28;20407;-58
2023/09/29 10:43:16;;;;;;;6.10;2.08;;;;;;;;;;5017837;28;20449;-57
2023/09/29 10:45:42;;;;;;;6.68;2.15;;;;;;;;;;5019679;28;20495;-57
2023/09/29 10:48:07;;;;;;;6.20;2.30;;;;;;;;;;5018498;28;20542;-57
2023/09/29 10:50:39;;;;;;;5.50;2.20;;;;;;;;;;5018075;28;20415;-57
2023/09/29 10:53:05;;;;;;;5.45;2.10;;;;;;;;;;5017696;28;20397;-57
2023/09/29 10:55:30;;;;;;;7.10;1.90;;;;;;;;;;5020462;28;20868;-57
2023/09/29 10:57:59;;;;;;;5.57;1.92;;;;;;;;;;5017614;28;20411;-57
2023/09/29 11:00:24;;;;;;;4.72;1.70;;;;;;;;;;5017543;28;20422;-57
2023/09/29 11:02:50;;;;;;;6.67;1.90;;;;;;;;;;5022722;28;20403;-57
2023/09/29 11:05:16;;;;;;;4.55;1.80;;;;;;;;;;5022705;28;20443;-57
2023/09/29 11:07:47;;;;;;;5.18;1.80;;;;;;;;;;5016509;28;20407;-57
2023/09/29 11:10:13;;;;;;;5.68;1.98;;;;;;;;;;5016877;28;20503;-57
2023/09/29 11:12:40;;;;;;;4.93;1.70;;;;;;;;;;5019942;28;20491;-57
2023/09/29 11:15:08;;;;;;;4.90;1.85;;;;;;;;;;5025580;28;20461;-57
2023/09/29 11:17:41;;;;;;;5.30;1.92;;;;;;;;;;5024785;28;20914;-57
2023/09/29 11:20:14;;;;;;;7.32;2.05;;;;;;;;;;5018339;28;20400;-57
2023/09/29 11:22:39;;;;;;;4.43;1.80;;;;;;;;;;5018812;28;20939;-57
2023/09/29 11:25:14;;;;;;;4.00;1.80;;;;;;;;;;5025315;28;21531;-57
2023/09/29 11:27:40;;;;;;;5.53;1.80;;;;;;;;;;5025513;28;20403;-57
2023/09/29 11:30:06;;;;;;;4.17;1.60;;;;;;;;;;5018667;28;20418;-57
2023/09/29 11:32:31;;;;;;;5.38;1.83;;;;;;;;;;5023948;28;20887;-57
2023/09/29 11:34:58;;;;;;;3.47;1.80;;;;;;;;;;5017327;28;20427;-57
2023/09/29 11:37:23;;;;;;;5.82;2.00;;;;;;;;;;5022119;28;20387;-58
2023/09/29 11:39:48;;;;;;;4.90;2.00;;;;;;;;;;5022231;28;20461;-57
2023/09/29 11:42:13;;;;;;;5.93;1.90;;;;;;;;;;5016594;28;20423;-57
2023/09/29 11:44:39;;;;;;;5.20;1.87;;;;;;;;;;5025005;28;20490;-57
2023/09/29 11:47:04;;;;;;;4.20;2.03;;;;;;;;;;5019665;28;20789;-57
2023/09/29 11:49:29;;;;;;;5.07;2.17;;;;;;;;;;5024506;28;20502;-58
2023/09/29 11:51:56;;;;;;;6.00;2.10;;;;;;;;;;5024713;28;20770;-57
2023/09/29 11:54:21;;;;;;;4.70;2.00;;;;;;;;;;5018896;28;20498;-57
2023/09/29 11:56:46;;;;;;;4.53;1.90;;;;;;;;;;5017093;28;20471;-57
2023/09/29 11:59:11;;;;;;;5.28;2.03;;;;;;;;;;5016256;28;20503;-57
2023/09/29 12:01:36;;;;;;;5.27;2.00;;;;;;;;;;5022718;28;20472;-57
2023/09/29 12:04:02;;;;;;;3.87;2.00;;;;;;;;;;5020233;28;20493;-58
2023/09/29 12:06:27;;;;;;;5.53;1.87;;;;;;;;;;5024560;28;20403;-57
2023/09/29 12:08:52;;;;;;;6.87;2.00;;;;;;;;;;5016472;28;20488;-57
2023/09/29 12:11:20;;;;;;;5.20;1.93;;;;;;;;;;5018549;28;20428;-57
2023/09/29 12:13:46;;;;;;;5.30;1.73;;;;;;;;;;5024016;28;20419;-57
2023/09/29 12:16:12;;;;;;;4.43;1.85;;;;;;;;;;5021422;28;20500;-57
2023/09/29 12:18:37;;;;;;;7.43;2.23;;;;;;;;;;5018120;28;20483;-58
2023/09/29 12:21:06;;;;;;;6.83;2.57;;;;;;;;;;5016749;28;21011;-58
2023/09/29 12:23:31;;;;;;;6.57;2.20;;;;;;;;;;5024171;28;20474;-58
2023/09/29 12:25:56;;;;;;;4.83;2.20;;;;;;;;;;5016554;28;20931;-58
2023/09/29 12:28:22;;;;;;;5.53;2.10;;;;;;;;;;5017012;28;20398;-58
2023/09/29 12:30:47;;;;;;;5.00;2.40;;;;;;;;;;5029757;28;20933;-58
2023/09/29 12:33:12;;;;;;;5.05;2.33;;;;;;;;;;5014929;28;20405;-58
2023/09/29 12:35:38;;;;;;;4.07;2.08;;;;;;;;;;5019644;28;20478;-58
2023/09/29 12:38:03;;;;;;;4.50;2.42;;;;;;;;;;5022836;28;20405;-58
2023/09/29 12:40:29;;;;;;;5.37;2.20;;;;;;;;;;5024572;28;20413;-58
2023/09/29 12:42:54;;;;;;;5.77;2.20;;;;;;;;;;5017568;28;20419;-58
2023/09/29 12:45:21;;;;;;;5.70;2.33;;;;;;;;;;5020565;28;20812;-58
2023/09/29 12:47:49;;;;;;;5.07;2.25;;;;;;;;;;5017229;28;20411;-57
2023/09/29 12:50:15;;;;;;;3.20;1.80;;;;;;;;;;5023117;28;20430;-58
2023/09/29 12:52:40;;;;;;;3.30;1.40;;;;;;;;;;5018604;28;20404;-58
2023/09/29 12:55:06;;;;;;;3.83;1.50;;;;;;;;;;5015286;28;20401;-58
2023/09/29 12:57:31;;;;;;;3.30;1.30;;;;;;;;;;5030356;28;20745;-58
2023/09/29 12:59:58;;;;;;;4.18;1.30;;;;;;;;;;5017437;28;20397;-57
2023/09/29 13:02:25;;;;;;;2.45;1.27;;;;;;;;;;5020239;28;20862;-58
2023/09/29 13:04:50;;;;;;;3.28;1.27;;;;;;;;;;5023613;28;20404;-58
2023/09/29 13:07:15;;;;;;;2.83;1.10;;;;;;;;;;5022348;28;20499;-58
2023/09/29 13:09:41;;;;;;;3.70;0.93;;;;;;;;;;5019551;28;20408;-57
2023/09/29 13:12:06;;;;;;;3.20;1.00;;;;;;;;;;5015198;28;20415;-58
2023/09/29 13:14:31;;;;;;;3.03;0.90;;;;;;;;;;5023811;28;20422;-57
2023/09/29 13:16:57;;;;;;;2.92;0.98;;;;;;;;;;5017476;28;20415;-57
2023/09/29 13:19:22;;;;;;;3.70;1.10;;;;;;;;;;5022682;28;20401;-58
2023/09/29 13:21:47;;;;;;;3.03;1.00;;;;;;;;;;5015711;28;20889;-57
2023/09/29 13:24:13;;;;;;;3.03;1.00;;;;;;;;;;5019417;28;20458;-58
2023/09/29 13:26:44;;;;;;;4.20;1.03;;;;;;;;;;5021099;28;20433;-58
2023/09/29 13:29:09;;;;;;;3.15;1.05;;;;;;;;;;5021690;28;20432;-58
2023/09/29 13:31:35;;;;;;;3.30;1.10;;;;;;;;;;5016978;28;20811;-58
2023/09/29 13:34:00;;;;;;;3.67;0.83;;;;;;;;;;5003114;28;20833;-58
2023/09/29 13:36:25;;;;;;;3.10;1.00;;;;;;;;;;5005656;28;20445;-58
2023/09/29 13:38:51;;;;;;;3.77;1.10;;;;;;;;;;5000209;28;20951;-58
2023/09/29 13:41:16;;;;;;;4.05;1.00;;;;;;;;;;5007794;28;20424;-58
2023/09/29 13:43:43;;;;;;;4.18;1.02;;;;;;;;;;5007598;28;20488;-58
2023/09/29 13:46:08;;;;;;;3.72;1.05;;;;;;;;;;5007661;28;20407;-59
2023/09/29 13:48:35;;;;;;;3.27;0.80;;;;;;;;;;5008344;28;20404;-58
2023/09/29 13:51:04;;;;;;;3.42;0.90;;;;;;;;;;5007153;28;20454;-58
2023/09/29 13:53:29;;;;;;;3.58;0.80;;;;;;;;;;5007759;28;20406;-58
2023/09/29 13:55:54;;;;;;;3.10;0.90;;;;;;;;;;5004874;28;20405;-58
2023/09/29 13:58:20;;;;;;;3.73;1.10;;;;;;;;;;5002109;28;20853;-58
2023/09/29 14:00:46;;;;;;;5.03;0.93;;;;;;;;;;5000300;28;20417;-58
2023/09/29 14:03:12;;;;;;;4.68;0.80;;;;;;;;;;5007009;28;20486;-58
2023/09/29 14:05:39;;;;;;;3.77;0.80;;;;;;;;;;5015786;28;20403;-58
2023/09/29 14:08:04;;;;;;;2.78;0.80;;;;;;;;;;5015783;28;20877;-58
2023/09/29 14:10:30;;;;;;;2.85;0.80;;;;;;;;;;5019066;28;20423;-58
2023/09/29 14:12:56;;;;;;;5.07;1.00;;;;;;;;;;5012041;28;20500;-58
2023/09/29 14:15:21;;;;;;;3.90;0.80;;;;;;;;;;5012123;28;20889;-58
2023/09/29 14:17:46;;;;;;;4.63;0.90;;;;;;;;;;5010853;28;20992;-58
2023/09/29 14:20:12;;;;;;;4.27;0.80;;;;;;;;;;5003178;28;20416;-58
2023/09/29 14:22:37;;;;;;;4.00;0.90;;;;;;;;;;5006556;28;20436;-58
2023/09/29 14:25:02;;;;;;;6.00;1.17;;;;;;;;;;5005080;28;20422;-58
2023/09/29 14:27:28;;;;;;;4.35;1.10;;;;;;;;;;5011771;28;20423;-58
2023/09/29 14:29:53;;;;;;;4.47;1.00;;;;;;;;;;5012193;28;20400;-58